sensor_id;sensor_type;location;lat;lon;timestamp;P1;durP1;ratioP1;P2;durP2;ratioP2
52668;SDS011;59898;52.786;6.892;2023-05-10T00:02:10;10.25;;;9.25;;
52668;SDS011;59898;52.786;6.892;2023-05-10T00:05:31;10.73;;;9.73;;
52668;SDS011;59898;52.786;6.892;2023-05-10T00:08:52;11.27;;;10.18;;
52668;SDS011;59898;52.786;6.892;2023-05-10T00:12:12;11.07;;;9.88;;
52668;SDS011;59898;52.786;6.892;2023-05-10T00:15:33;10.80;;;9.32;;
52668;SDS011;59898;52.786;6.892;2023-05-10T00:18:54;11.50;;;10.30;;
52668;SDS011;59898;52.786;6.892;2023-05-10T00:22:15;11.13;;;10.02;;
52668;SDS011;59898;52.786;6.892;2023-05-10T00:25:35;9.98;;;8.90;;
52668;SDS011;59898;52.786;6.892;2023-05-10T00:28:56;10.90;;;9.80;;
52668;SDS011;59898;52.786;6.892;2023-05-10T00:32:18;9.77;;;8.77;;
52668;SDS011;59898;52.786;6.892;2023-05-10T00:35:38;10.75;;;8.82;;
52668;SDS011;59898;52.786;6.892;2023-05-10T00:38:59;10.43;;;9.23;;
52668;SDS011;59898;52.786;6.892;2023-05-10T00:42:20;10.02;;;8.95;;
52668;SDS011;59898;52.786;6.892;2023-05-10T00:45:41;9.75;;;8.75;;
52668;SDS011;59898;52.786;6.892;2023-05-10T00:49:01;9.45;;;7.65;;
52668;SDS011;59898;52.786;6.892;2023-05-10T00:52:22;11.25;;;10.05;;
52668;SDS011;59898;52.786;6.892;2023-05-10T00:55:43;9.75;;;8.27;;
52668;SDS011;59898;52.786;6.892;2023-05-10T00:59:04;10.88;;;8.77;;
52668;SDS011;59898;52.786;6.892;2023-05-10T01:02:24;14.07;;;9.45;;
52668;SDS011;59898;52.786;6.892;2023-05-10T01:05:45;12.05;;;9.55;;
52668;SDS011;59898;52.786;6.892;2023-05-10T01:09:06;12.18;;;10.05;;
52668;SDS011;59898;52.786;6.892;2023-05-10T01:12:26;11.40;;;10.23;;
52668;SDS011;59898;52.786;6.892;2023-05-10T01:15:47;11.98;;;8.90;;
52668;SDS011;59898;52.786;6.892;2023-05-10T01:19:11;10.93;;;9.60;;
52668;SDS011;59898;52.786;6.892;2023-05-10T01:26:39;10.13;;;8.98;;
52668;SDS011;59898;52.786;6.892;2023-05-10T01:34:09;14.35;;;10.82;;
52668;SDS011;59898;52.786;6.892;2023-05-10T01:37:38;12.10;;;9.93;;
52668;SDS011;59898;52.786;6.892;2023-05-10T01:45:01;10.38;;;8.70;;
52668;SDS011;59898;52.786;6.892;2023-05-10T01:48:31;10.48;;;8.52;;
52668;SDS011;59898;52.786;6.892;2023-05-10T01:51:53;13.63;;;9.88;;
52668;SDS011;59898;52.786;6.892;2023-05-10T01:55:18;12.18;;;8.98;;
52668;SDS011;59898;52.786;6.892;2023-05-10T01:58:40;11.25;;;9.88;;
52668;SDS011;59898;52.786;6.892;2023-05-10T02:02:05;11.35;;;9.98;;
52668;SDS011;59898;52.786;6.892;2023-05-10T02:05:31;12.07;;;9.27;;
52668;SDS011;59898;52.786;6.892;2023-05-10T02:08:52;10.70;;;8.85;;
52668;SDS011;59898;52.786;6.892;2023-05-10T02:12:15;10.63;;;9.52;;
52668;SDS011;59898;52.786;6.892;2023-05-10T02:15:37;9.47;;;8.17;;
52668;SDS011;59898;52.786;6.892;2023-05-10T02:18:59;10.73;;;8.95;;
52668;SDS011;59898;52.786;6.892;2023-05-10T02:22:22;9.13;;;7.28;;
52668;SDS011;59898;52.786;6.892;2023-05-10T02:25:43;12.77;;;10.20;;
52668;SDS011;59898;52.786;6.892;2023-05-10T02:29:06;10.52;;;8.00;;
52668;SDS011;59898;52.786;6.892;2023-05-10T02:32:28;10.35;;;9.18;;
52668;SDS011;59898;52.786;6.892;2023-05-10T02:35:50;10.32;;;8.13;;
52668;SDS011;59898;52.786;6.892;2023-05-10T02:39:11;10.65;;;8.75;;
52668;SDS011;59898;52.786;6.892;2023-05-10T02:42:35;10.13;;;7.85;;
52668;SDS011;59898;52.786;6.892;2023-05-10T02:45:56;11.88;;;9.68;;
52668;SDS011;59898;52.786;6.892;2023-05-10T02:49:17;9.05;;;8.00;;
52668;SDS011;59898;52.786;6.892;2023-05-10T02:52:47;9.68;;;7.65;;
52668;SDS011;59898;52.786;6.892;2023-05-10T02:56:15;10.38;;;8.35;;
52668;SDS011;59898;52.786;6.892;2023-05-10T03:00:05;10.45;;;8.05;;
52668;SDS011;59898;52.786;6.892;2023-05-10T03:03:26;12.48;;;8.57;;
52668;SDS011;59898;52.786;6.892;2023-05-10T03:06:47;8.98;;;7.50;;
52668;SDS011;59898;52.786;6.892;2023-05-10T03:10:08;10.82;;;8.50;;
52668;SDS011;59898;52.786;6.892;2023-05-10T03:13:31;10.60;;;8.30;;
52668;SDS011;59898;52.786;6.892;2023-05-10T03:17:04;8.88;;;7.20;;
52668;SDS011;59898;52.786;6.892;2023-05-10T03:20:31;10.70;;;8.65;;
52668;SDS011;59898;52.786;6.892;2023-05-10T03:24:07;8.20;;;7.40;;
52668;SDS011;59898;52.786;6.892;2023-05-10T03:27:31;9.85;;;8.10;;
52668;SDS011;59898;52.786;6.892;2023-05-10T03:30:53;9.55;;;7.40;;
52668;SDS011;59898;52.786;6.892;2023-05-10T03:34:15;9.70;;;7.50;;
52668;SDS011;59898;52.786;6.892;2023-05-10T03:37:36;8.80;;;7.88;;
52668;SDS011;59898;52.786;6.892;2023-05-10T03:40:56;9.68;;;7.63;;
52668;SDS011;59898;52.786;6.892;2023-05-10T03:44:17;10.57;;;8.07;;
52668;SDS011;59898;52.786;6.892;2023-05-10T03:47:38;9.52;;;8.05;;
52668;SDS011;59898;52.786;6.892;2023-05-10T03:50:58;8.02;;;6.93;;
52668;SDS011;59898;52.786;6.892;2023-05-10T03:54:19;10.15;;;7.75;;
52668;SDS011;59898;52.786;6.892;2023-05-10T03:57:40;9.35;;;7.43;;
52668;SDS011;59898;52.786;6.892;2023-05-10T04:01:00;9.27;;;7.13;;
52668;SDS011;59898;52.786;6.892;2023-05-10T04:04:21;8.50;;;7.30;;
52668;SDS011;59898;52.786;6.892;2023-05-10T04:07:43;9.13;;;7.38;;
52668;SDS011;59898;52.786;6.892;2023-05-10T04:11:04;8.82;;;7.15;;
52668;SDS011;59898;52.786;6.892;2023-05-10T04:14:29;11.25;;;8.48;;
52668;SDS011;59898;52.786;6.892;2023-05-10T04:17:49;9.18;;;7.45;;
52668;SDS011;59898;52.786;6.892;2023-05-10T04:21:13;10.90;;;8.68;;
52668;SDS011;59898;52.786;6.892;2023-05-10T04:24:34;9.65;;;8.02;;
52668;SDS011;59898;52.786;6.892;2023-05-10T04:27:54;9.40;;;8.10;;
52668;SDS011;59898;52.786;6.892;2023-05-10T04:31:15;10.80;;;8.10;;
52668;SDS011;59898;52.786;6.892;2023-05-10T04:34:36;11.32;;;7.30;;
52668;SDS011;59898;52.786;6.892;2023-05-10T04:37:57;9.25;;;7.88;;
52668;SDS011;59898;52.786;6.892;2023-05-10T04:41:17;9.05;;;7.65;;
52668;SDS011;59898;52.786;6.892;2023-05-10T04:44:38;13.90;;;9.10;;
52668;SDS011;59898;52.786;6.892;2023-05-10T04:47:58;10.55;;;8.43;;
52668;SDS011;59898;52.786;6.892;2023-05-10T04:51:19;10.70;;;8.45;;
52668;SDS011;59898;52.786;6.892;2023-05-10T04:54:40;11.25;;;8.88;;
52668;SDS011;59898;52.786;6.892;2023-05-10T04:58:01;11.18;;;9.02;;
52668;SDS011;59898;52.786;6.892;2023-05-10T05:01:22;9.93;;;8.25;;
52668;SDS011;59898;52.786;6.892;2023-05-10T05:04:43;10.95;;;8.70;;
52668;SDS011;59898;52.786;6.892;2023-05-10T05:08:03;11.98;;;10.15;;
52668;SDS011;59898;52.786;6.892;2023-05-10T05:11:24;13.93;;;10.25;;
52668;SDS011;59898;52.786;6.892;2023-05-10T05:14:45;13.90;;;11.55;;
52668;SDS011;59898;52.786;6.892;2023-05-10T05:18:06;13.13;;;10.13;;
52668;SDS011;59898;52.786;6.892;2023-05-10T05:21:26;12.63;;;10.02;;
52668;SDS011;59898;52.786;6.892;2023-05-10T05:24:47;14.32;;;11.60;;
52668;SDS011;59898;52.786;6.892;2023-05-10T05:28:08;11.70;;;9.85;;
52668;SDS011;59898;52.786;6.892;2023-05-10T05:31:28;10.98;;;9.32;;
52668;SDS011;59898;52.786;6.892;2023-05-10T05:34:49;12.43;;;8.57;;
52668;SDS011;59898;52.786;6.892;2023-05-10T05:38:10;13.43;;;9.25;;
52668;SDS011;59898;52.786;6.892;2023-05-10T05:41:31;13.82;;;9.43;;
52668;SDS011;59898;52.786;6.892;2023-05-10T05:44:51;11.35;;;9.18;;
52668;SDS011;59898;52.786;6.892;2023-05-10T05:48:12;10.50;;;9.02;;
52668;SDS011;59898;52.786;6.892;2023-05-10T05:51:32;12.00;;;7.97;;
52668;SDS011;59898;52.786;6.892;2023-05-10T05:54:54;13.13;;;8.75;;
52668;SDS011;59898;52.786;6.892;2023-05-10T05:58:15;10.57;;;8.18;;
52668;SDS011;59898;52.786;6.892;2023-05-10T06:01:35;13.43;;;8.38;;
52668;SDS011;59898;52.786;6.892;2023-05-10T06:04:56;10.90;;;7.82;;
52668;SDS011;59898;52.786;6.892;2023-05-10T06:08:16;13.48;;;9.25;;
52668;SDS011;59898;52.786;6.892;2023-05-10T06:11:37;14.10;;;8.45;;
52668;SDS011;59898;52.786;6.892;2023-05-10T06:14:58;13.73;;;8.90;;
52668;SDS011;59898;52.786;6.892;2023-05-10T06:18:18;11.85;;;8.48;;
52668;SDS011;59898;52.786;6.892;2023-05-10T06:21:39;10.93;;;7.53;;
52668;SDS011;59898;52.786;6.892;2023-05-10T06:24:59;12.48;;;8.90;;
52668;SDS011;59898;52.786;6.892;2023-05-10T06:28:20;12.52;;;8.30;;
52668;SDS011;59898;52.786;6.892;2023-05-10T06:31:41;11.38;;;8.13;;
52668;SDS011;59898;52.786;6.892;2023-05-10T06:35:01;10.77;;;7.93;;
52668;SDS011;59898;52.786;6.892;2023-05-10T06:38:22;11.80;;;8.07;;
52668;SDS011;59898;52.786;6.892;2023-05-10T06:41:43;13.10;;;8.60;;
52668;SDS011;59898;52.786;6.892;2023-05-10T06:45:04;11.48;;;7.82;;
52668;SDS011;59898;52.786;6.892;2023-05-10T06:48:25;12.02;;;7.18;;
52668;SDS011;59898;52.786;6.892;2023-05-10T06:51:46;10.32;;;7.18;;
52668;SDS011;59898;52.786;6.892;2023-05-10T06:55:06;11.95;;;7.72;;
52668;SDS011;59898;52.786;6.892;2023-05-10T06:58:28;12.95;;;8.45;;
52668;SDS011;59898;52.786;6.892;2023-05-10T07:01:49;11.65;;;7.13;;
52668;SDS011;59898;52.786;6.892;2023-05-10T07:05:09;11.63;;;7.38;;
52668;SDS011;59898;52.786;6.892;2023-05-10T07:08:31;10.73;;;6.40;;
52668;SDS011;59898;52.786;6.892;2023-05-10T07:11:51;12.85;;;7.72;;
52668;SDS011;59898;52.786;6.892;2023-05-10T07:15:12;12.35;;;7.60;;
52668;SDS011;59898;52.786;6.892;2023-05-10T07:18:32;11.25;;;6.57;;
52668;SDS011;59898;52.786;6.892;2023-05-10T07:21:53;9.95;;;6.22;;
52668;SDS011;59898;52.786;6.892;2023-05-10T07:25:14;11.07;;;6.43;;
52668;SDS011;59898;52.786;6.892;2023-05-10T07:28:34;12.05;;;6.57;;
52668;SDS011;59898;52.786;6.892;2023-05-10T07:31:57;11.68;;;6.80;;
52668;SDS011;59898;52.786;6.892;2023-05-10T07:35:17;10.82;;;6.10;;
52668;SDS011;59898;52.786;6.892;2023-05-10T07:38:38;10.45;;;5.85;;
52668;SDS011;59898;52.786;6.892;2023-05-10T07:41:59;10.63;;;5.38;;
52668;SDS011;59898;52.786;6.892;2023-05-10T07:45:20;8.27;;;5.82;;
52668;SDS011;59898;52.786;6.892;2023-05-10T07:48:40;10.27;;;6.25;;
52668;SDS011;59898;52.786;6.892;2023-05-10T07:52:02;8.60;;;6.53;;
52668;SDS011;59898;52.786;6.892;2023-05-10T07:55:23;8.95;;;5.60;;
52668;SDS011;59898;52.786;6.892;2023-05-10T07:58:43;9.93;;;6.47;;
52668;SDS011;59898;52.786;6.892;2023-05-10T08:02:04;13.68;;;6.35;;
52668;SDS011;59898;52.786;6.892;2023-05-10T08:05:25;8.65;;;6.15;;
52668;SDS011;59898;52.786;6.892;2023-05-10T08:08:46;10.98;;;7.05;;
52668;SDS011;59898;52.786;6.892;2023-05-10T08:12:09;8.43;;;6.40;;
52668;SDS011;59898;52.786;6.892;2023-05-10T08:15:29;8.60;;;6.18;;
52668;SDS011;59898;52.786;6.892;2023-05-10T08:18:50;8.63;;;6.35;;
52668;SDS011;59898;52.786;6.892;2023-05-10T08:22:10;10.10;;;6.35;;
52668;SDS011;59898;52.786;6.892;2023-05-10T08:25:31;12.05;;;6.60;;
52668;SDS011;59898;52.786;6.892;2023-05-10T08:28:52;11.55;;;7.25;;
52668;SDS011;59898;52.786;6.892;2023-05-10T08:32:13;11.63;;;6.60;;
52668;SDS011;59898;52.786;6.892;2023-05-10T08:35:33;8.23;;;6.65;;
52668;SDS011;59898;52.786;6.892;2023-05-10T08:38:54;9.55;;;6.32;;
52668;SDS011;59898;52.786;6.892;2023-05-10T08:42:16;8.48;;;6.13;;
52668;SDS011;59898;52.786;6.892;2023-05-10T08:45:42;9.93;;;5.90;;
52668;SDS011;59898;52.786;6.892;2023-05-10T08:49:06;7.53;;;5.22;;
52668;SDS011;59898;52.786;6.892;2023-05-10T08:52:28;9.75;;;5.72;;
52668;SDS011;59898;52.786;6.892;2023-05-10T08:55:51;8.05;;;5.90;;
52668;SDS011;59898;52.786;6.892;2023-05-10T08:59:12;10.18;;;6.38;;
52668;SDS011;59898;52.786;6.892;2023-05-10T09:02:34;8.65;;;5.50;;
52668;SDS011;59898;52.786;6.892;2023-05-10T09:05:56;6.90;;;5.85;;
52668;SDS011;59898;52.786;6.892;2023-05-10T09:09:17;6.90;;;5.45;;
52668;SDS011;59898;52.786;6.892;2023-05-10T09:12:39;7.18;;;5.75;;
52668;SDS011;59898;52.786;6.892;2023-05-10T09:16:00;7.82;;;5.50;;
52668;SDS011;59898;52.786;6.892;2023-05-10T09:19:21;6.53;;;5.38;;
52668;SDS011;59898;52.786;6.892;2023-05-10T09:22:41;10.20;;;5.88;;
52668;SDS011;59898;52.786;6.892;2023-05-10T09:26:03;7.63;;;4.97;;
52668;SDS011;59898;52.786;6.892;2023-05-10T09:29:24;6.97;;;5.35;;
52668;SDS011;59898;52.786;6.892;2023-05-10T09:32:47;7.00;;;5.35;;
52668;SDS011;59898;52.786;6.892;2023-05-10T09:36:08;6.93;;;5.15;;
52668;SDS011;59898;52.786;6.892;2023-05-10T09:39:38;6.30;;;4.70;;
52668;SDS011;59898;52.786;6.892;2023-05-10T09:43:07;6.18;;;4.78;;
52668;SDS011;59898;52.786;6.892;2023-05-10T09:46:28;5.03;;;3.78;;
52668;SDS011;59898;52.786;6.892;2023-05-10T09:49:49;7.00;;;4.18;;
52668;SDS011;59898;52.786;6.892;2023-05-10T09:53:11;7.50;;;4.80;;
52668;SDS011;59898;52.786;6.892;2023-05-10T09:56:35;8.32;;;4.82;;
52668;SDS011;59898;52.786;6.892;2023-05-10T09:59:59;7.57;;;4.72;;
52668;SDS011;59898;52.786;6.892;2023-05-10T10:03:20;9.82;;;5.10;;
52668;SDS011;59898;52.786;6.892;2023-05-10T10:06:42;6.40;;;4.60;;
52668;SDS011;59898;52.786;6.892;2023-05-10T10:10:03;7.45;;;5.03;;
52668;SDS011;59898;52.786;6.892;2023-05-10T10:13:24;9.05;;;6.50;;
52668;SDS011;59898;52.786;6.892;2023-05-10T10:16:45;6.80;;;5.40;;
52668;SDS011;59898;52.786;6.892;2023-05-10T10:20:06;10.68;;;6.95;;
52668;SDS011;59898;52.786;6.892;2023-05-10T10:23:28;11.38;;;7.13;;
52668;SDS011;59898;52.786;6.892;2023-05-10T10:26:48;11.80;;;7.60;;
52668;SDS011;59898;52.786;6.892;2023-05-10T10:37:17;7.65;;;6.00;;
52668;SDS011;59898;52.786;6.892;2023-05-10T10:40:37;7.82;;;6.13;;
52668;SDS011;59898;52.786;6.892;2023-05-10T10:48:19;8.57;;;6.50;;
52668;SDS011;59898;52.786;6.892;2023-05-10T10:52:12;8.73;;;6.95;;
52668;SDS011;59898;52.786;6.892;2023-05-10T10:55:34;7.82;;;6.85;;
52668;SDS011;59898;52.786;6.892;2023-05-10T10:58:56;8.88;;;7.07;;
52668;SDS011;59898;52.786;6.892;2023-05-10T11:02:43;8.00;;;6.40;;
52668;SDS011;59898;52.786;6.892;2023-05-10T11:06:06;9.52;;;7.40;;
52668;SDS011;59898;52.786;6.892;2023-05-10T11:09:27;10.43;;;6.63;;
52668;SDS011;59898;52.786;6.892;2023-05-10T11:13:04;8.23;;;6.82;;
52668;SDS011;59898;52.786;6.892;2023-05-10T11:16:26;8.88;;;6.70;;
52668;SDS011;59898;52.786;6.892;2023-05-10T11:20:02;11.07;;;7.43;;
52668;SDS011;59898;52.786;6.892;2023-05-10T11:27:03;11.32;;;7.47;;
52668;SDS011;59898;52.786;6.892;2023-05-10T11:30:25;9.55;;;7.40;;
52668;SDS011;59898;52.786;6.892;2023-05-10T11:33:46;9.57;;;6.68;;
52668;SDS011;59898;52.786;6.892;2023-05-10T11:37:11;11.95;;;6.35;;
52668;SDS011;59898;52.786;6.892;2023-05-10T11:40:31;8.80;;;7.35;;
52668;SDS011;59898;52.786;6.892;2023-05-10T11:43:52;8.25;;;6.25;;
52668;SDS011;59898;52.786;6.892;2023-05-10T11:47:14;11.38;;;6.40;;
52668;SDS011;59898;52.786;6.892;2023-05-10T11:50:34;9.35;;;7.35;;
52668;SDS011;59898;52.786;6.892;2023-05-10T11:53:56;10.07;;;7.18;;
52668;SDS011;59898;52.786;6.892;2023-05-10T11:57:20;8.15;;;5.70;;
52668;SDS011;59898;52.786;6.892;2023-05-10T12:00:45;10.02;;;6.65;;
52668;SDS011;59898;52.786;6.892;2023-05-10T12:04:06;7.95;;;6.05;;
52668;SDS011;59898;52.786;6.892;2023-05-10T12:07:27;10.32;;;6.72;;
52668;SDS011;59898;52.786;6.892;2023-05-10T12:10:48;14.15;;;6.97;;
52668;SDS011;59898;52.786;6.892;2023-05-10T12:14:08;10.20;;;6.75;;
52668;SDS011;59898;52.786;6.892;2023-05-10T12:17:29;7.72;;;5.95;;
52668;SDS011;59898;52.786;6.892;2023-05-10T12:20:53;10.65;;;7.07;;
52668;SDS011;59898;52.786;6.892;2023-05-10T12:24:14;11.10;;;7.63;;
52668;SDS011;59898;52.786;6.892;2023-05-10T12:27:37;9.10;;;6.63;;
52668;SDS011;59898;52.786;6.892;2023-05-10T12:31:01;8.93;;;7.45;;
52668;SDS011;59898;52.786;6.892;2023-05-10T12:34:23;8.30;;;6.32;;
52668;SDS011;59898;52.786;6.892;2023-05-10T12:37:44;9.13;;;6.15;;
52668;SDS011;59898;52.786;6.892;2023-05-10T12:41:07;7.45;;;6.38;;
52668;SDS011;59898;52.786;6.892;2023-05-10T12:44:33;9.30;;;6.95;;
52668;SDS011;59898;52.786;6.892;2023-05-10T12:47:53;9.55;;;6.55;;
52668;SDS011;59898;52.786;6.892;2023-05-10T12:51:14;12.45;;;7.65;;
52668;SDS011;59898;52.786;6.892;2023-05-10T12:54:37;10.05;;;6.70;;
52668;SDS011;59898;52.786;6.892;2023-05-10T12:57:57;7.43;;;6.10;;
52668;SDS011;59898;52.786;6.892;2023-05-10T13:01:18;6.85;;;5.20;;
52668;SDS011;59898;52.786;6.892;2023-05-10T13:04:39;9.38;;;6.18;;
52668;SDS011;59898;52.786;6.892;2023-05-10T13:07:59;8.38;;;6.90;;
52668;SDS011;59898;52.786;6.892;2023-05-10T13:11:20;9.80;;;6.10;;
52668;SDS011;59898;52.786;6.892;2023-05-10T13:14:41;8.90;;;5.65;;
52668;SDS011;59898;52.786;6.892;2023-05-10T13:18:02;7.78;;;6.28;;
52668;SDS011;59898;52.786;6.892;2023-05-10T13:21:22;8.32;;;5.85;;
52668;SDS011;59898;52.786;6.892;2023-05-10T13:24:44;7.75;;;6.68;;
52668;SDS011;59898;52.786;6.892;2023-05-10T13:28:05;13.38;;;8.93;;
52668;SDS011;59898;52.786;6.892;2023-05-10T13:31:25;10.23;;;6.78;;
52668;SDS011;59898;52.786;6.892;2023-05-10T13:34:46;9.45;;;7.43;;
52668;SDS011;59898;52.786;6.892;2023-05-10T13:38:07;11.30;;;7.43;;
52668;SDS011;59898;52.786;6.892;2023-05-10T13:41:27;9.10;;;7.00;;
52668;SDS011;59898;52.786;6.892;2023-05-10T13:44:48;9.70;;;7.32;;
52668;SDS011;59898;52.786;6.892;2023-05-10T13:48:09;8.93;;;6.88;;
52668;SDS011;59898;52.786;6.892;2023-05-10T13:51:30;10.55;;;7.95;;
52668;SDS011;59898;52.786;6.892;2023-05-10T13:54:51;12.90;;;8.77;;
52668;SDS011;59898;52.786;6.892;2023-05-10T13:58:14;18.10;;;10.93;;
52668;SDS011;59898;52.786;6.892;2023-05-10T14:01:35;8.63;;;6.40;;
52668;SDS011;59898;52.786;6.892;2023-05-10T14:04:56;7.53;;;6.30;;
52668;SDS011;59898;52.786;6.892;2023-05-10T14:08:16;9.43;;;7.00;;
52668;SDS011;59898;52.786;6.892;2023-05-10T14:11:37;7.40;;;5.85;;
52668;SDS011;59898;52.786;6.892;2023-05-10T14:15:01;12.73;;;7.15;;
52668;SDS011;59898;52.786;6.892;2023-05-10T14:18:22;10.13;;;7.40;;
52668;SDS011;59898;52.786;6.892;2023-05-10T14:21:43;8.15;;;6.07;;
52668;SDS011;59898;52.786;6.892;2023-05-10T14:25:03;6.55;;;4.85;;
52668;SDS011;59898;52.786;6.892;2023-05-10T14:28:24;9.13;;;6.30;;
52668;SDS011;59898;52.786;6.892;2023-05-10T14:31:45;7.28;;;5.50;;
52668;SDS011;59898;52.786;6.892;2023-05-10T14:35:05;7.80;;;5.03;;
52668;SDS011;59898;52.786;6.892;2023-05-10T14:38:26;9.27;;;5.63;;
52668;SDS011;59898;52.786;6.892;2023-05-10T14:41:47;6.50;;;4.95;;
52668;SDS011;59898;52.786;6.892;2023-05-10T14:45:07;6.97;;;4.97;;
52668;SDS011;59898;52.786;6.892;2023-05-10T14:48:29;9.07;;;5.13;;
52668;SDS011;59898;52.786;6.892;2023-05-10T14:51:49;11.13;;;6.07;;
52668;SDS011;59898;52.786;6.892;2023-05-10T14:55:10;7.28;;;4.97;;
52668;SDS011;59898;52.786;6.892;2023-05-10T14:58:30;10.52;;;5.43;;
52668;SDS011;59898;52.786;6.892;2023-05-10T15:01:51;7.88;;;5.20;;
52668;SDS011;59898;52.786;6.892;2023-05-10T15:05:12;6.78;;;4.63;;
52668;SDS011;59898;52.786;6.892;2023-05-10T15:08:32;11.45;;;5.05;;
52668;SDS011;59898;52.786;6.892;2023-05-10T15:11:53;7.38;;;4.88;;
52668;SDS011;59898;52.786;6.892;2023-05-10T15:15:14;7.30;;;4.93;;
52668;SDS011;59898;52.786;6.892;2023-05-10T15:18:35;7.03;;;5.22;;
52668;SDS011;59898;52.786;6.892;2023-05-10T15:21:55;7.63;;;5.32;;
52668;SDS011;59898;52.786;6.892;2023-05-10T15:25:16;6.13;;;4.43;;
52668;SDS011;59898;52.786;6.892;2023-05-10T15:28:37;10.60;;;6.43;;
52668;SDS011;59898;52.786;6.892;2023-05-10T15:31:57;10.00;;;7.63;;
52668;SDS011;59898;52.786;6.892;2023-05-10T15:35:18;10.45;;;7.43;;
52668;SDS011;59898;52.786;6.892;2023-05-10T15:38:38;10.18;;;6.63;;
52668;SDS011;59898;52.786;6.892;2023-05-10T15:41:59;10.52;;;6.75;;
52668;SDS011;59898;52.786;6.892;2023-05-10T15:45:21;10.88;;;7.45;;
52668;SDS011;59898;52.786;6.892;2023-05-10T15:48:41;12.38;;;7.95;;
52668;SDS011;59898;52.786;6.892;2023-05-10T15:52:02;9.60;;;7.28;;
52668;SDS011;59898;52.786;6.892;2023-05-10T15:55:23;10.77;;;8.38;;
52668;SDS011;59898;52.786;6.892;2023-05-10T15:58:43;10.13;;;7.68;;
52668;SDS011;59898;52.786;6.892;2023-05-10T16:02:04;9.77;;;7.47;;
52668;SDS011;59898;52.786;6.892;2023-05-10T16:05:26;10.13;;;7.50;;
52668;SDS011;59898;52.786;6.892;2023-05-10T16:08:50;9.73;;;7.15;;
52668;SDS011;59898;52.786;6.892;2023-05-10T16:12:11;12.07;;;8.00;;
52668;SDS011;59898;52.786;6.892;2023-05-10T16:15:31;9.18;;;7.03;;
52668;SDS011;59898;52.786;6.892;2023-05-10T16:18:52;8.65;;;7.10;;
52668;SDS011;59898;52.786;6.892;2023-05-10T16:22:13;11.43;;;8.30;;
52668;SDS011;59898;52.786;6.892;2023-05-10T16:25:34;11.98;;;6.82;;
52668;SDS011;59898;52.786;6.892;2023-05-10T16:28:55;13.10;;;9.70;;
52668;SDS011;59898;52.786;6.892;2023-05-10T16:32:15;19.35;;;14.18;;
52668;SDS011;59898;52.786;6.892;2023-05-10T16:35:36;12.98;;;8.77;;
52668;SDS011;59898;52.786;6.892;2023-05-10T16:38:56;10.93;;;8.73;;
52668;SDS011;59898;52.786;6.892;2023-05-10T16:42:17;11.23;;;7.60;;
52668;SDS011;59898;52.786;6.892;2023-05-10T16:45:38;11.32;;;7.40;;
52668;SDS011;59898;52.786;6.892;2023-05-10T16:48:59;11.88;;;7.50;;
52668;SDS011;59898;52.786;6.892;2023-05-10T16:52:19;10.20;;;7.75;;
52668;SDS011;59898;52.786;6.892;2023-05-10T16:55:40;12.65;;;7.30;;
52668;SDS011;59898;52.786;6.892;2023-05-10T16:59:00;8.07;;;6.47;;
52668;SDS011;59898;52.786;6.892;2023-05-10T17:02:22;8.65;;;6.40;;
52668;SDS011;59898;52.786;6.892;2023-05-10T17:05:42;9.23;;;6.80;;
52668;SDS011;59898;52.786;6.892;2023-05-10T17:09:03;11.80;;;7.07;;
52668;SDS011;59898;52.786;6.892;2023-05-10T17:12:24;9.63;;;6.88;;
52668;SDS011;59898;52.786;6.892;2023-05-10T17:15:45;9.88;;;6.38;;
52668;SDS011;59898;52.786;6.892;2023-05-10T17:19:06;9.65;;;7.10;;
52668;SDS011;59898;52.786;6.892;2023-05-10T17:22:28;11.63;;;7.28;;
52668;SDS011;59898;52.786;6.892;2023-05-10T17:25:48;9.75;;;7.03;;
52668;SDS011;59898;52.786;6.892;2023-05-10T17:29:09;11.10;;;7.68;;
52668;SDS011;59898;52.786;6.892;2023-05-10T17:32:29;10.15;;;7.45;;
52668;SDS011;59898;52.786;6.892;2023-05-10T17:35:50;9.63;;;6.95;;
52668;SDS011;59898;52.786;6.892;2023-05-10T17:39:11;11.07;;;7.68;;
52668;SDS011;59898;52.786;6.892;2023-05-10T17:42:32;10.77;;;7.95;;
52668;SDS011;59898;52.786;6.892;2023-05-10T17:45:53;8.75;;;7.03;;
52668;SDS011;59898;52.786;6.892;2023-05-10T17:49:13;9.80;;;7.63;;
52668;SDS011;59898;52.786;6.892;2023-05-10T17:52:34;19.83;;;14.07;;
52668;SDS011;59898;52.786;6.892;2023-05-10T17:55:55;13.38;;;9.60;;
52668;SDS011;59898;52.786;6.892;2023-05-10T17:59:20;11.02;;;8.35;;
52668;SDS011;59898;52.786;6.892;2023-05-10T18:02:41;13.55;;;9.18;;
52668;SDS011;59898;52.786;6.892;2023-05-10T18:06:02;10.85;;;8.18;;
52668;SDS011;59898;52.786;6.892;2023-05-10T18:09:23;11.23;;;7.85;;
52668;SDS011;59898;52.786;6.892;2023-05-10T18:12:43;14.02;;;8.23;;
52668;SDS011;59898;52.786;6.892;2023-05-10T18:16:04;13.40;;;9.85;;
52668;SDS011;59898;52.786;6.892;2023-05-10T18:19:27;12.00;;;8.90;;
52668;SDS011;59898;52.786;6.892;2023-05-10T18:22:48;10.57;;;8.20;;
52668;SDS011;59898;52.786;6.892;2023-05-10T18:26:09;10.93;;;8.15;;
52668;SDS011;59898;52.786;6.892;2023-05-10T18:29:29;11.52;;;7.50;;
52668;SDS011;59898;52.786;6.892;2023-05-10T18:32:50;13.05;;;8.50;;
52668;SDS011;59898;52.786;6.892;2023-05-10T18:36:10;11.85;;;9.02;;
52668;SDS011;59898;52.786;6.892;2023-05-10T18:39:31;11.20;;;8.57;;
52668;SDS011;59898;52.786;6.892;2023-05-10T18:42:52;16.30;;;10.77;;
52668;SDS011;59898;52.786;6.892;2023-05-10T18:46:13;11.70;;;8.40;;
52668;SDS011;59898;52.786;6.892;2023-05-10T18:49:34;14.82;;;9.45;;
52668;SDS011;59898;52.786;6.892;2023-05-10T18:52:54;11.68;;;8.63;;
52668;SDS011;59898;52.786;6.892;2023-05-10T18:56:15;12.88;;;9.73;;
52668;SDS011;59898;52.786;6.892;2023-05-10T18:59:36;15.02;;;11.18;;
52668;SDS011;59898;52.786;6.892;2023-05-10T19:02:56;11.40;;;7.65;;
52668;SDS011;59898;52.786;6.892;2023-05-10T19:06:17;10.07;;;7.53;;
52668;SDS011;59898;52.786;6.892;2023-05-10T19:09:37;9.77;;;7.05;;
52668;SDS011;59898;52.786;6.892;2023-05-10T19:12:58;10.57;;;7.20;;
52668;SDS011;59898;52.786;6.892;2023-05-10T19:16:18;8.32;;;6.70;;
52668;SDS011;59898;52.786;6.892;2023-05-10T19:19:39;12.48;;;6.72;;
52668;SDS011;59898;52.786;6.892;2023-05-10T19:23:00;8.40;;;6.68;;
52668;SDS011;59898;52.786;6.892;2023-05-10T19:26:21;10.05;;;7.38;;
52668;SDS011;59898;52.786;6.892;2023-05-10T19:29:42;10.05;;;7.40;;
52668;SDS011;59898;52.786;6.892;2023-05-10T19:33:02;11.55;;;7.90;;
52668;SDS011;59898;52.786;6.892;2023-05-10T19:36:24;8.80;;;7.40;;
52668;SDS011;59898;52.786;6.892;2023-05-10T19:39:44;14.18;;;8.88;;
52668;SDS011;59898;52.786;6.892;2023-05-10T19:43:05;10.52;;;7.97;;
52668;SDS011;59898;52.786;6.892;2023-05-10T19:46:26;12.20;;;8.73;;
52668;SDS011;59898;52.786;6.892;2023-05-10T19:49:46;11.88;;;8.65;;
52668;SDS011;59898;52.786;6.892;2023-05-10T19:53:07;11.88;;;8.88;;
52668;SDS011;59898;52.786;6.892;2023-05-10T19:56:27;11.85;;;8.98;;
52668;SDS011;59898;52.786;6.892;2023-05-10T19:59:48;12.00;;;8.82;;
52668;SDS011;59898;52.786;6.892;2023-05-10T20:03:09;11.73;;;8.73;;
52668;SDS011;59898;52.786;6.892;2023-05-10T20:06:30;13.45;;;9.02;;
52668;SDS011;59898;52.786;6.892;2023-05-10T20:09:50;13.25;;;9.20;;
52668;SDS011;59898;52.786;6.892;2023-05-10T20:13:11;10.88;;;9.77;;
52668;SDS011;59898;52.786;6.892;2023-05-10T20:16:31;14.15;;;9.80;;
52668;SDS011;59898;52.786;6.892;2023-05-10T20:19:52;12.77;;;9.38;;
52668;SDS011;59898;52.786;6.892;2023-05-10T20:23:12;13.40;;;10.70;;
52668;SDS011;59898;52.786;6.892;2023-05-10T20:26:34;17.45;;;10.63;;
52668;SDS011;59898;52.786;6.892;2023-05-10T20:29:54;17.38;;;12.13;;